createdAt,value
2024-01-08T00:01:15.688Z,102924.09
2024-01-08T00:06:19.286Z,102926.09
2024-01-08T00:11:20.929Z,102930.75
2024-01-08T00:16:22.550Z,102929.03
2024-01-08T00:21:24.053Z,102913.50
2024-01-08T00:26:26.048Z,102917.50
2024-01-08T00:31:28.122Z,102934.41
2024-01-08T00:36:29.976Z,102927.22
2024-01-08T00:41:31.603Z,102941.06
2024-01-08T00:46:33.132Z,102943.97
2024-01-08T00:51:34.672Z,102939.75
2024-01-08T00:56:36.251Z,102945.38
2024-01-08T01:01:37.778Z,102959.69
2024-01-08T01:06:39.308Z,102961.81
2024-01-08T01:11:40.846Z,102984.75
2024-01-08T01:16:42.359Z,102974.44
2024-01-08T01:21:43.857Z,102985.16
2024-01-08T01:26:45.376Z,102993.19
2024-01-08T01:31:46.950Z,102988.34
2024-01-08T01:36:49.576Z,102999.06
2024-01-08T01:41:53.887Z,103014.78
2024-01-08T01:46:55.460Z,103006.13
2024-01-08T01:51:57.310Z,103005.97
2024-01-08T01:57:01.030Z,103014.56
2024-01-08T02:02:02.639Z,103003.72
2024-01-08T02:07:04.670Z,103002.25
2024-01-08T02:12:07.106Z,102999.63
2024-01-08T02:17:08.675Z,103004.75
2024-01-08T02:22:10.203Z,102998.44
2024-01-08T02:27:11.716Z,102999.56
2024-01-08T02:32:14.783Z,102992.22
2024-01-08T02:37:16.372Z,102992.59
2024-01-08T02:42:19.594Z,102997.41
2024-01-08T02:47:21.281Z,102987.66
2024-01-08T02:52:22.827Z,102997.78
2024-01-08T02:57:24.333Z,102998.63
2024-01-08T03:02:25.934Z,103012.97
2024-01-08T03:07:27.577Z,103008.78
2024-01-08T03:12:29.117Z,103012.00
2024-01-08T03:17:30.683Z,103008.41
2024-01-08T03:22:32.276Z,103010.00
2024-01-08T03:27:33.778Z,103012.19
2024-01-08T03:32:35.475Z,103017.09
2024-01-08T03:37:37.236Z,103002.41
2024-01-08T03:42:38.839Z,103013.59
2024-01-08T03:47:41.279Z,103014.03
2024-01-08T03:52:42.984Z,103028.56
2024-01-08T03:57:44.699Z,103019.38
2024-01-08T04:02:46.483Z,103014.78
2024-01-08T04:07:48.109Z,103015.47
2024-01-08T04:12:49.661Z,103025.13
2024-01-08T04:17:52.012Z,103031.97
2024-01-08T04:22:53.627Z,103039.28
2024-01-08T04:27:55.231Z,103030.53
2024-01-08T04:32:56.870Z,103045.31
2024-01-08T04:37:58.423Z,103039.41
2024-01-08T04:42:59.957Z,103055.56
2024-01-08T04:48:01.550Z,103058.44
2024-01-08T04:53:03.154Z,103067.00
2024-01-08T04:58:06.870Z,103065.31
2024-01-08T05:03:11.348Z,103074.53
2024-01-08T05:08:12.927Z,103082.88
2024-01-08T05:13:14.461Z,103077.66
2024-01-08T05:18:16.056Z,103086.81
2024-01-08T05:23:17.742Z,103091.78
2024-01-08T05:28:19.280Z,103077.50
2024-01-08T05:33:21.479Z,103087.75
2024-01-08T05:38:23.379Z,103077.44
2024-01-08T05:43:24.965Z,103078.81
2024-01-08T05:48:26.702Z,103074.38
2024-01-08T05:53:29.443Z,103091.81
2024-01-08T05:58:33.689Z,103071.56
2024-01-08T06:03:35.370Z,103075.25
2024-01-08T06:08:38.564Z,103080.38
2024-01-08T06:13:40.754Z,103074.91
2024-01-08T06:18:42.636Z,103077.34
2024-01-08T06:23:44.279Z,103091.44
2024-01-08T06:28:45.798Z,103095.00
2024-01-08T06:33:47.386Z,103089.59
2024-01-08T06:38:48.998Z,103089.25
2024-01-08T06:43:50.518Z,103091.88
2024-01-08T06:48:52.374Z,103100.38
2024-01-08T06:53:53.947Z,103092.81
2024-01-08T06:58:55.454Z,103090.41
2024-01-08T07:03:57.282Z,103113.91
2024-01-08T07:08:58.796Z,103121.31
2024-01-08T07:14:00.334Z,103127.28
2024-01-08T07:19:02.054Z,103127.84
2024-01-08T07:24:04.318Z,103134.22
2024-01-08T07:29:05.833Z,103145.63
2024-01-08T07:34:07.488Z,103156.69
2024-01-08T07:39:09.048Z,103163.66
2024-01-08T07:44:10.599Z,103166.94
2024-01-08T07:49:12.307Z,103169.94
2024-01-08T07:54:13.900Z,103176.88
2024-01-08T07:59:15.465Z,103196.22
2024-01-08T08:04:17.080Z,103191.13
2024-01-08T08:09:18.662Z,103202.25
2024-01-08T08:14:20.222Z,103213.50
2024-01-08T08:19:24.242Z,103221.19
2024-01-08T08:24:26.644Z,103231.78
2024-01-08T08:29:29.855Z,103245.53
2024-01-08T08:34:31.731Z,103249.81
2024-01-08T08:39:33.282Z,103257.41
2024-01-08T08:44:35.075Z,103274.53
2024-01-08T08:49:36.683Z,103269.03
2024-01-08T08:54:38.329Z,103280.38
2024-01-08T08:59:40.435Z,103283.63
2024-01-08T09:04:42.159Z,103278.31
2024-01-08T09:09:43.798Z,103296.00
2024-01-08T09:14:45.352Z,103284.28
2024-01-08T09:19:51.606Z,103296.91
2024-01-08T09:24:53.776Z,103308.25
2024-01-08T09:29:55.335Z,103296.66
2024-01-08T09:34:56.981Z,103301.25
2024-01-08T09:39:58.556Z,103319.50
2024-01-08T09:45:00.525Z,103301.78
2024-01-08T09:50:02.053Z,103306.25
2024-01-08T09:55:03.806Z,103309.41
2024-01-08T10:00:06.839Z,103310.41
2024-01-08T10:05:09.096Z,103324.22
2024-01-08T10:10:10.907Z,103310.72
2024-01-08T10:15:14.676Z,103320.38
2024-01-08T10:20:16.680Z,103313.00
2024-01-08T10:25:24.001Z,103329.03
2024-01-08T10:30:27.137Z,103298.78
2024-01-08T10:35:32.553Z,103295.88
2024-01-08T10:40:34.705Z,103295.66
2024-01-08T10:45:36.210Z,103284.41
2024-01-08T10:50:41.055Z,103287.19
2024-01-08T10:55:42.764Z,103296.69
2024-01-08T11:00:44.310Z,103299.50
2024-01-08T11:05:48.394Z,103282.25
2024-01-08T11:10:50.901Z,103287.28
2024-01-08T11:15:52.464Z,103287.00
2024-01-08T11:20:54.272Z,103293.44
2024-01-08T11:25:55.846Z,103282.06
2024-01-08T11:31:16.239Z,103270.66
2024-01-08T11:36:18.270Z,103288.25
2024-01-08T11:41:19.927Z,103285.13
2024-01-08T11:46:21.987Z,103282.25
2024-01-08T11:51:23.689Z,103290.66
2024-01-08T11:56:25.242Z,103290.75
2024-01-08T12:01:28.538Z,103287.22
2024-01-08T12:06:30.769Z,103295.41
2024-01-08T12:11:32.401Z,103285.59
2024-01-08T12:16:33.951Z,103300.88
2024-01-08T12:21:43.493Z,103282.16
2024-01-08T12:26:50.297Z,103302.81
2024-01-08T12:31:57.118Z,103297.56
2024-01-08T12:37:00.274Z,103312.03
2024-01-08T12:42:08.139Z,103310.41
2024-01-08T12:47:10.836Z,103308.31
2024-01-08T12:52:12.530Z,103310.47
2024-01-08T12:57:15.240Z,103309.78
2024-01-08T13:02:16.934Z,103307.22
2024-01-08T13:07:18.537Z,103306.28
2024-01-08T13:12:20.246Z,103304.44
2024-01-08T13:17:22.371Z,103301.34
2024-01-08T13:22:23.888Z,103314.41
2024-01-08T13:27:25.437Z,103312.78
2024-01-08T13:32:26.978Z,103299.19
2024-01-08T13:37:28.529Z,103306.50
2024-01-08T13:42:30.070Z,103307.34
2024-01-08T13:47:31.846Z,103302.88
2024-01-08T13:52:33.507Z,103300.22
2024-01-08T13:57:35.020Z,103303.91
2024-01-08T14:02:36.843Z,103312.84
2024-01-08T14:07:38.440Z,103309.72
2024-01-08T14:12:39.967Z,103316.38
2024-01-08T14:17:42.612Z,103312.41
2024-01-08T14:22:44.241Z,103323.47
2024-01-08T14:27:45.739Z,103316.22
2024-01-08T14:32:47.462Z,103318.91
2024-01-08T14:37:49.335Z,103326.41
2024-01-08T14:42:51.255Z,103312.03
2024-01-08T14:47:52.925Z,103328.53
2024-01-08T14:52:54.614Z,103332.94
2024-01-08T14:57:56.429Z,103338.78
2024-01-08T15:02:58.067Z,103335.56
2024-01-08T15:07:59.703Z,103338.28
2024-01-08T15:13:01.284Z,103345.28
2024-01-08T15:18:04.176Z,103340.59
2024-01-08T15:23:06.116Z,103342.53
2024-01-08T15:28:07.664Z,103357.63
2024-01-08T15:33:09.233Z,103350.31
2024-01-08T15:38:10.830Z,103363.72
2024-01-08T15:43:12.372Z,103349.91
2024-01-08T15:48:14.035Z,103353.19
2024-01-08T15:53:18.740Z,103353.25
2024-01-08T15:58:20.271Z,103365.38
2024-01-08T16:03:21.864Z,103363.22
2024-01-08T16:08:23.802Z,103369.53
2024-01-08T16:13:25.363Z,103379.75
2024-01-08T16:18:26.993Z,103376.66
2024-01-08T16:23:28.567Z,103374.03
2024-01-08T16:28:30.122Z,103382.25
2024-01-08T16:33:31.758Z,103384.88
2024-01-08T16:38:33.361Z,103395.03
2024-01-08T16:43:34.904Z,103392.81
2024-01-08T16:48:36.529Z,103390.94
2024-01-08T16:53:38.171Z,103394.28
2024-01-08T16:58:39.796Z,103411.25
2024-01-08T17:03:41.415Z,103405.38
2024-01-08T17:08:43.144Z,103406.44
2024-01-08T17:13:44.784Z,103409.13
2024-01-08T17:18:46.563Z,103414.75
2024-01-08T17:23:48.279Z,103409.38
2024-01-08T17:28:55.747Z,103430.06
2024-01-08T17:33:57.482Z,103425.63
2024-01-08T17:38:59.229Z,103430.38
2024-01-08T17:44:00.866Z,103433.72
2024-01-08T17:49:03.566Z,103427.25
2024-01-08T17:54:05.111Z,103443.84
2024-01-08T17:59:06.625Z,103434.41
2024-01-08T18:04:08.638Z,103444.75
2024-01-08T18:09:12.513Z,103443.13
2024-01-08T18:14:15.989Z,103443.38
2024-01-08T18:19:17.667Z,103457.56
2024-01-08T18:24:24.357Z,103457.84
2024-01-08T18:29:33.069Z,103458.94
2024-01-08T18:34:35.055Z,103466.34
2024-01-08T18:39:36.622Z,103454.09
2024-01-08T18:44:39.354Z,103453.44
2024-01-08T18:49:41.063Z,103467.44
2024-01-08T18:54:42.653Z,103473.19
2024-01-08T18:59:44.204Z,103481.41
2024-01-08T19:04:45.863Z,103481.19
2024-01-08T19:09:47.448Z,103482.91
2024-01-08T19:14:49.425Z,103490.44
2024-01-08T19:19:51.631Z,103491.72
2024-01-08T19:24:53.283Z,103500.69
2024-01-08T19:29:54.963Z,103508.81
2024-01-08T19:34:56.529Z,103516.41
2024-01-08T19:39:58.046Z,103513.41
2024-01-08T19:44:59.574Z,103512.47
2024-01-08T19:50:01.224Z,103509.78
2024-01-08T19:55:02.803Z,103514.75
2024-01-08T20:00:04.738Z,103509.03
2024-01-08T20:05:09.866Z,103510.44
2024-01-08T20:10:11.394Z,103522.47
2024-01-08T20:15:14.078Z,103515.78
2024-01-08T20:20:17.394Z,103530.28
2024-01-08T20:25:22.302Z,103534.56
2024-01-08T20:30:23.845Z,103517.69
2024-01-08T20:35:25.413Z,103524.78
2024-01-08T20:40:27.212Z,103529.75
2024-01-08T20:45:28.798Z,103543.34
2024-01-08T20:50:30.394Z,103534.06
2024-01-08T20:55:32.047Z,103545.69
2024-01-08T21:00:33.626Z,103545.47
2024-01-08T21:05:35.249Z,103534.34
2024-01-08T21:10:36.817Z,103527.84
2024-01-08T21:15:38.433Z,103523.38
2024-01-08T21:20:39.975Z,103520.59
2024-01-08T21:25:42.173Z,103519.56
2024-01-08T21:30:43.697Z,103517.41
2024-01-08T21:35:45.422Z,103527.72
2024-01-08T21:40:46.958Z,103524.44
2024-01-08T21:45:48.470Z,103512.00
2024-01-08T21:50:50.028Z,103514.75
2024-01-08T21:55:51.586Z,103515.59
2024-01-08T22:00:54.463Z,103528.47
2024-01-08T22:05:56.394Z,103522.69
2024-01-08T22:10:57.987Z,103513.44
2024-01-08T22:15:59.500Z,103510.91
2024-01-08T22:21:01.001Z,103515.00
2024-01-08T22:26:03.029Z,103514.81
2024-01-08T22:31:04.792Z,103517.19
2024-01-08T22:36:06.453Z,103518.75
2024-01-08T22:41:08.080Z,103519.75
2024-01-08T22:46:09.766Z,103520.72
2024-01-08T22:51:12.096Z,103523.19
2024-01-08T22:56:13.643Z,103530.56
2024-01-08T23:01:15.174Z,103527.66
2024-01-08T23:06:16.833Z,103529.53
2024-01-08T23:11:18.452Z,103522.91
2024-01-08T23:16:19.983Z,103515.69
2024-01-08T23:21:21.491Z,103513.91
2024-01-08T23:26:23.032Z,103514.72
2024-01-08T23:31:25.234Z,103514.44
2024-01-08T23:36:27.249Z,103516.22
2024-01-08T23:41:28.881Z,103526.06
2024-01-08T23:46:30.417Z,103526.09
2024-01-08T23:51:31.929Z,103527.41
2024-01-08T23:56:33.832Z,103520.50
